Capt. Pete — WDH7978 — position and weather

sailwx.info

Track history (hours):
 
Tides and Currents Weather Stations Pressure Air Temp Water Temp Dewpoint Dewpoint Depression Visibility Wind Speed Wind Dir Waves Ship Positions

Capt. Pete

Owner: Higman Barge Lines, Inc., Orange, TX. More information available from US FCC via Universal Licensing System and Coast Guard Vessel Documentation Center.

Last reported at 2017-Nov-17 05:30 UTC. Time now 2017-Nov-23 09:38 UTC.
Position N 30°05' W 093°44'.

Length 24 m; draft 2.7 m.

Type: Towing. MMSI: 367653470.

Date/timePositionNaut miles runAvg speedWind from/ knotsBaromVisibWave heightAir tempDewpointWater temp
2017-Nov-17 05:30N 30°05' W 093°44'0 0.0
2017-Nov-16 15:53N 30°05' W 093°44'0 0.1
2017-Nov-16 14:06N 30°05' W 093°44'0 0.1
2017-Nov-16 14:00N 30°05' W 093°44'0 0.0
2017-Nov-16 13:15N 30°05' W 093°44'0 0.0
2017-Nov-16 12:57N 30°05' W 093°44'0 0.0
2017-Nov-16 12:27N 30°05' W 093°44'0 0.0
2017-Nov-16 12:00N 30°05' W 093°44'0 0.0
2017-Nov-16 11:30N 30°05' W 093°44'0 0.0
2017-Nov-16 11:00N 30°05' W 093°44'0 0.0
2017-Nov-16 10:30N 30°05' W 093°44'0 0.0
2017-Nov-16 09:54N 30°05' W 093°44'0 0.0
2017-Nov-16 09:30N 30°05' W 093°44'0 0.0
2017-Nov-16 09:00N 30°05' W 093°44'0 0.0
2017-Nov-16 08:30N 30°05' W 093°44'0 0.0
2017-Nov-16 06:12N 30°05' W 093°44'0 0.0
2017-Nov-16 05:45N 30°05' W 093°44'1 0.0
2017-Nov-15 15:53N 30°05' W 093°43'1 0.1
2017-Nov-15 11:38N 30°05' W 093°44'1 1.0
2017-Nov-15 10:40N 30°05' W 093°43'2 3.8
2017-Nov-15 10:17N 30°03' W 093°43'2 6.3
2017-Nov-15 10:00N 30°01' W 093°44'67 4.9
2017-Nov-14 20:30N 29°30' W 094°52'3 6.3
2017-Nov-14 20:00N 29°33' W 094°54'3 6.6
2017-Nov-14 19:30N 29°35' W 094°56'3 6.7
2017-Nov-14 19:00N 29°39' W 094°58'3 6.8
2017-Nov-14 18:30N 29°42' W 094°60'3 5.9
2017-Nov-14 17:57N 29°44' W 095°02'3 5.6
2017-Nov-14 17:22N 29°46' W 095°05'  
2017-Nov-12 12:33N 29°46' W 095°05'0 0.3
2017-Nov-12 12:29N 29°46' W 095°05'0 0.1
2017-Nov-12 11:55N 29°47' W 095°05'0 0.0
2017-Nov-12 11:28N 29°47' W 095°05'0 0.0
2017-Nov-12 10:53N 29°47' W 095°05'0 0.0
2017-Nov-12 10:30N 29°47' W 095°05'0 0.1
2017-Nov-12 10:00N 29°46' W 095°05'3 5.7
2017-Nov-12 09:25N 29°44' W 095°07'3 6.5
2017-Nov-12 09:00N 29°45' W 095°10'3 6.1
2017-Nov-12 08:30N 29°44' W 095°14'1 1.1
2017-Nov-12 07:54N 29°43' W 095°14'0 0.0
2017-Nov-12 07:30N 29°43' W 095°14'0 0.0
2017-Nov-12 07:00N 29°43' W 095°14'0 0.0
2017-Nov-12 04:45N 29°43' W 095°14'0 0.0
2017-Nov-12 04:30N 29°43' W 095°14'0 0.0
2017-Nov-12 03:57N 29°43' W 095°14'0 0.0
2017-Nov-12 02:45N 29°43' W 095°14'0 0.0
2017-Nov-11 20:15N 29°43' W 095°14'0 0.0
2017-Nov-11 20:00N 29°43' W 095°14'0 0.0
2017-Nov-11 19:30N 29°43' W 095°14'0 0.0
2017-Nov-11 19:00N 29°43' W 095°14'0 0.0
2017-Nov-11 14:22N 29°43' W 095°14'0 0.0
2017-Nov-11 13:49N 29°43' W 095°14'0 0.0
2017-Nov-11 13:30N 29°43' W 095°14'0 0.0
2017-Nov-11 12:49N 29°43' W 095°14'0 0.0
2017-Nov-11 12:30N 29°43' W 095°14'0 0.0
2017-Nov-11 11:58N 29°43' W 095°14'0 0.7
2017-Nov-11 11:28N 29°43' W 095°14'2 3.5
2017-Nov-11 11:00N 29°44' W 095°12'2 4.4
2017-Nov-11 10:30N 29°45' W 095°10'2 4.9
2017-Nov-11 10:00N 29°44' W 095°07'1 0.2
2017-Nov-11 04:38N 29°46' W 095°07'1 0.1
2017-Nov-10 12:46N 29°45' W 095°07'0 0.0
2017-Nov-09 21:23N 29°45' W 095°06'0 0.1
2017-Nov-09 18:05N 29°45' W 095°07'0 0.0
2017-Nov-09 14:20N 29°45' W 095°07'0 0.0
2017-Nov-09 13:54N 29°45' W 095°07'1 0.8
2017-Nov-09 12:27N 29°46' W 095°07'0 0.0
2017-Nov-09 11:55N 29°46' W 095°07'0 0.1
2017-Nov-09 11:31N 29°46' W 095°07'0 0.4
2017-Nov-09 10:55N 29°46' W 095°07'1 1.7
2017-Nov-09 10:25N 29°45' W 095°06'1 2.3
2017-Nov-09 09:47N 29°45' W 095°04'1 2.9
2017-Nov-09 09:31N 29°45' W 095°04'0 0.5
2017-Nov-09 09:00N 29°45' W 095°04'2 4.5
2017-Nov-09 08:29N 29°43' W 095°01'2 4.1
2017-Nov-09 08:00N 29°42' W 094°60'3 5.2
2017-Nov-09 07:31N 29°40' W 094°58'3 6.4
2017-Nov-09 07:01N 29°37' W 094°57'3 6.5
2017-Nov-09 06:31N 29°34' W 094°55'3 6.6
2017-Nov-09 05:59N 29°31' W 094°53'  
Track history (hours):
 
Tides and Currents Weather Stations Pressure Air Temp Water Temp Dewpoint Dewpoint Depression Visibility Wind Speed Wind Dir Waves Ship Positions

Capt. Pete

Owner: Higman Barge Lines, Inc., Orange, TX. More information available from US FCC via Universal Licensing System and Coast Guard Vessel Documentation Center.

Last reported at 2017-Nov-17 05:30 UTC. Time now 2017-Nov-23 09:38 UTC.
Position N 30°05' W 093°44'.

Length 24 m; draft 2.7 m.

Type: Towing. MMSI: 367653470.

Date/timePositionNaut miles runAvg speedWind from/ knotsBaromVisibWave heightAir tempDewpointWater temp
2017-Nov-17 05:30N 30°05' W 093°44'0 0.0
2017-Nov-16 15:53N 30°05' W 093°44'0 0.1
2017-Nov-16 14:06N 30°05' W 093°44'0 0.1
2017-Nov-16 14:00N 30°05' W 093°44'0 0.0
2017-Nov-16 13:15N 30°05' W 093°44'0 0.0
2017-Nov-16 12:57N 30°05' W 093°44'0 0.0
2017-Nov-16 12:27N 30°05' W 093°44'0 0.0
2017-Nov-16 12:00N 30°05' W 093°44'0 0.0
2017-Nov-16 11:30N 30°05' W 093°44'0 0.0
2017-Nov-16 11:00N 30°05' W 093°44'0 0.0
2017-Nov-16 10:30N 30°05' W 093°44'0 0.0
2017-Nov-16 09:54N 30°05' W 093°44'0 0.0
2017-Nov-16 09:30N 30°05' W 093°44'0 0.0
2017-Nov-16 09:00N 30°05' W 093°44'0 0.0
2017-Nov-16 08:30N 30°05' W 093°44'0 0.0
2017-Nov-16 06:12N 30°05' W 093°44'0 0.0
2017-Nov-16 05:45N 30°05' W 093°44'1 0.0
2017-Nov-15 15:53N 30°05' W 093°43'1 0.1
2017-Nov-15 11:38N 30°05' W 093°44'1 1.0
2017-Nov-15 10:40N 30°05' W 093°43'2 3.8
2017-Nov-15 10:17N 30°03' W 093°43'2 6.3
2017-Nov-15 10:00N 30°01' W 093°44'67 4.9
2017-Nov-14 20:30N 29°30' W 094°52'3 6.3
2017-Nov-14 20:00N 29°33' W 094°54'3 6.6
2017-Nov-14 19:30N 29°35' W 094°56'3 6.7
2017-Nov-14 19:00N 29°39' W 094°58'3 6.8
2017-Nov-14 18:30N 29°42' W 094°60'3 5.9
2017-Nov-14 17:57N 29°44' W 095°02'3 5.6
2017-Nov-14 17:22N 29°46' W 095°05'  
2017-Nov-12 12:33N 29°46' W 095°05'0 0.3
2017-Nov-12 12:29N 29°46' W 095°05'0 0.1
2017-Nov-12 11:55N 29°47' W 095°05'0 0.0
2017-Nov-12 11:28N 29°47' W 095°05'0 0.0
2017-Nov-12 10:53N 29°47' W 095°05'0 0.0
2017-Nov-12 10:30N 29°47' W 095°05'0 0.1
2017-Nov-12 10:00N 29°46' W 095°05'3 5.7
2017-Nov-12 09:25N 29°44' W 095°07'3 6.5
2017-Nov-12 09:00N 29°45' W 095°10'3 6.1
2017-Nov-12 08:30N 29°44' W 095°14'1 1.1
2017-Nov-12 07:54N 29°43' W 095°14'0 0.0
2017-Nov-12 07:30N 29°43' W 095°14'0 0.0
2017-Nov-12 07:00N 29°43' W 095°14'0 0.0
2017-Nov-12 04:45N 29°43' W 095°14'0 0.0
2017-Nov-12 04:30N 29°43' W 095°14'0 0.0
2017-Nov-12 03:57N 29°43' W 095°14'0 0.0
2017-Nov-12 02:45N 29°43' W 095°14'0 0.0
2017-Nov-11 20:15N 29°43' W 095°14'0 0.0
2017-Nov-11 20:00N 29°43' W 095°14'0 0.0
2017-Nov-11 19:30N 29°43' W 095°14'0 0.0
2017-Nov-11 19:00N 29°43' W 095°14'0 0.0
2017-Nov-11 14:22N 29°43' W 095°14'0 0.0
2017-Nov-11 13:49N 29°43' W 095°14'0 0.0
2017-Nov-11 13:30N 29°43' W 095°14'0 0.0
2017-Nov-11 12:49N 29°43' W 095°14'0 0.0
2017-Nov-11 12:30N 29°43' W 095°14'0 0.0
2017-Nov-11 11:58N 29°43' W 095°14'0 0.7
2017-Nov-11 11:28N 29°43' W 095°14'2 3.5
2017-Nov-11 11:00N 29°44' W 095°12'2 4.4
2017-Nov-11 10:30N 29°45' W 095°10'2 4.9
2017-Nov-11 10:00N 29°44' W 095°07'1 0.2
2017-Nov-11 04:38N 29°46' W 095°07'1 0.1
2017-Nov-10 12:46N 29°45' W 095°07'0 0.0
2017-Nov-09 21:23N 29°45' W 095°06'0 0.1
2017-Nov-09 18:05N 29°45' W 095°07'0 0.0
2017-Nov-09 14:20N 29°45' W 095°07'0 0.0
2017-Nov-09 13:54N 29°45' W 095°07'1 0.8
2017-Nov-09 12:27N 29°46' W 095°07'0 0.0
2017-Nov-09 11:55N 29°46' W 095°07'0 0.1
2017-Nov-09 11:31N 29°46' W 095°07'0 0.4
2017-Nov-09 10:55N 29°46' W 095°07'1 1.7
2017-Nov-09 10:25N 29°45' W 095°06'1 2.3
2017-Nov-09 09:47N 29°45' W 095°04'1 2.9
2017-Nov-09 09:31N 29°45' W 095°04'0 0.5
2017-Nov-09 09:00N 29°45' W 095°04'2 4.5
2017-Nov-09 08:29N 29°43' W 095°01'2 4.1
2017-Nov-09 08:00N 29°42' W 094°60'3 5.2
2017-Nov-09 07:31N 29°40' W 094°58'3 6.4
2017-Nov-09 07:01N 29°37' W 094°57'3 6.5
2017-Nov-09 06:31N 29°34' W 094°55'3 6.6
2017-Nov-09 05:59N 29°31' W 094°53'  

Dump ship's entire track history